Time;durP1;ratioP1;P1;durP2;ratioP2;P2;SDS_P1;SDS_P2;PMS_P1;PMS_P2;Temp;Humidity;BMP_temperature;BMP_pressure;BME280_temperature;BME280_humidity;BME280_pressure;Samples;Min_cycle;Max_cycle;Signal;HPM_P1;HPM_P2
2022/08/03 00:01:39;;;;;;;16.30;3.42;;;19.00;99.90;;;;;;4993208;28;20461;-60
2022/08/03 00:04:06;;;;;;;16.83;2.78;;;19.00;99.90;;;;;;4997255;28;20065;-58
2022/08/03 00:06:32;;;;;;;15.13;2.90;;;19.00;99.90;;;;;;4997784;28;20478;-58
2022/08/03 00:08:58;;;;;;;16.75;4.03;;;18.90;99.90;;;;;;4989999;28;20106;-58
2022/08/03 00:11:24;;;;;;;14.25;3.17;;;18.90;99.90;;;;;;4993213;28;20026;-58
2022/08/03 00:13:49;;;;;;;11.27;2.67;;;18.90;99.90;;;;;;4990224;28;20077;-58
2022/08/03 00:16:16;;;;;;;12.55;2.72;;;18.80;99.90;;;;;;4994864;28;20121;-58
2022/08/03 00:18:42;;;;;;;9.90;3.70;;;18.80;99.90;;;;;;4997288;28;20025;-58
2022/08/03 00:21:08;;;;;;;13.90;2.63;;;18.80;99.90;;;;;;4989538;28;20037;-59
2022/08/03 00:23:34;;;;;;;20.55;3.30;;;18.80;99.90;;;;;;4996681;28;20042;-58
2022/08/03 00:26:00;;;;;;;12.32;3.13;;;18.70;99.90;;;;;;4997573;28;20435;-58
2022/08/03 00:28:26;;;;;;;15.57;3.58;;;18.70;99.90;;;;;;4984946;28;20161;-57
2022/08/03 00:30:51;;;;;;;15.07;3.45;;;18.70;99.90;;;;;;4995592;28;20030;-58
2022/08/03 00:33:18;;;;;;;14.38;3.70;;;18.80;99.90;;;;;;4993818;28;20022;-58
2022/08/03 00:35:44;;;;;;;14.40;4.07;;;18.80;99.90;;;;;;4997661;28;20030;-57
2022/08/03 00:38:09;;;;;;;19.70;3.50;;;18.70;99.90;;;;;;4990285;28;20022;-58
2022/08/03 00:40:35;;;;;;;11.80;4.07;;;18.70;99.90;;;;;;4992071;28;21821;-58
2022/08/03 00:43:03;;;;;;;9.63;3.08;;;18.70;99.90;;;;;;4997874;28;20038;-58
2022/08/03 00:45:31;;;;;;;11.98;3.00;;;18.70;99.90;;;;;;4991796;28;20046;-58
2022/08/03 00:47:58;;;;;;;15.75;4.13;;;18.70;99.90;;;;;;4990708;28;20030;-58
2022/08/03 00:50:25;;;;;;;17.15;3.88;;;18.70;99.90;;;;;;4993937;28;20026;-58
2022/08/03 00:52:53;;;;;;;18.23;3.75;;;18.60;99.90;;;;;;4991207;28;20391;-57
2022/08/03 00:55:19;;;;;;;19.83;3.25;;;18.70;99.90;;;;;;4984202;28;20031;-57
2022/08/03 00:57:45;;;;;;;16.35;3.30;;;18.70;99.90;;;;;;4993377;28;20034;-58
2022/08/03 01:00:13;;;;;;;13.90;3.13;;;18.70;99.90;;;;;;4995296;28;20026;-58
2022/08/03 01:02:40;;;;;;;12.10;3.72;;;18.70;99.90;;;;;;4993489;28;20129;-58
2022/08/03 01:05:06;;;;;;;14.73;3.40;;;18.70;99.90;;;;;;4999163;28;20022;-58
2022/08/03 01:07:51;;;;;;;11.10;3.75;;;18.70;99.90;;;;;;4988474;28;20041;-58
2022/08/03 01:10:53;;;;;;;18.35;3.67;;;18.70;99.90;;;;;;4992116;28;20108;-57
2022/08/03 01:13:43;;;;;;;8.95;2.92;;;18.70;99.90;;;;;;4994405;28;20122;-58
2022/08/03 01:16:16;;;;;;;9.40;2.83;;;18.70;99.90;;;;;;4994593;28;20080;-57
2022/08/03 01:18:46;;;;;;;12.73;3.17;;;18.70;99.90;;;;;;4995967;28;20378;-57
2022/08/03 01:21:19;;;;;;;17.45;3.55;;;18.70;99.90;;;;;;4988127;28;20037;-57
2022/08/03 01:24:21;;;;;;;10.25;2.67;;;18.70;99.90;;;;;;4990251;28;20050;-57
2022/08/03 01:26:58;;;;;;;9.20;2.85;;;18.70;99.90;;;;;;4989038;28;20026;-59
2022/08/03 01:29:48;;;;;;;14.65;3.25;;;18.70;99.90;;;;;;4992214;28;20034;-60
2022/08/03 01:32:19;;;;;;;17.10;3.30;;;18.70;99.90;;;;;;4996690;28;20038;-58
2022/08/03 01:34:58;;;;;;;11.55;2.75;;;18.70;99.90;;;;;;4994230;28;20038;-58
2022/08/03 01:37:31;;;;;;;13.30;3.35;;;18.70;99.90;;;;;;4993122;28;20081;-58
2022/08/03 01:39:59;;;;;;;10.68;2.50;;;18.70;99.90;;;;;;4992063;28;20038;-58
2022/08/03 01:42:27;;;;;;;17.15;3.83;;;18.70;99.90;;;;;;4991521;28;20049;-57
2022/08/03 01:44:56;;;;;;;14.13;3.47;;;18.70;99.90;;;;;;4992313;28;20052;-58
2022/08/03 01:47:24;;;;;;;10.68;3.28;;;18.70;99.90;;;;;;4988682;28;20041;-57
2022/08/03 01:49:51;;;;;;;13.13;2.58;;;18.70;99.90;;;;;;4991851;28;20022;-57
2022/08/03 01:52:19;;;;;;;13.20;3.58;;;18.70;99.90;;;;;;4989770;28;20528;-57
2022/08/03 01:54:49;;;;;;;9.32;3.78;;;18.60;99.90;;;;;;4989253;28;20574;-58
2022/08/03 01:57:17;;;;;;;11.98;3.25;;;18.70;99.90;;;;;;4978105;28;20054;-58
2022/08/03 01:59:45;;;;;;;11.73;3.13;;;18.70;99.90;;;;;;4994684;28;20018;-58
2022/08/03 02:02:13;;;;;;;8.95;2.33;;;18.60;99.90;;;;;;4985150;28;20126;-57
2022/08/03 02:04:41;;;;;;;11.65;2.95;;;18.70;99.90;;;;;;4995789;28;20034;-58
2022/08/03 02:07:09;;;;;;;14.43;2.50;;;18.70;99.90;;;;;;4996005;28;20068;-57
2022/08/03 02:09:37;;;;;;;14.50;2.78;;;18.70;99.90;;;;;;4991214;28;20371;-59
2022/08/03 02:12:07;;;;;;;11.05;2.25;;;18.70;99.90;;;;;;4990556;28;20025;-58
2022/08/03 02:14:34;;;;;;;8.18;2.30;;;18.70;99.90;;;;;;4993231;28;20022;-57
2022/08/03 02:17:00;;;;;;;15.73;2.25;;;18.70;99.90;;;;;;4997774;28;20072;-58
2022/08/03 02:19:27;;;;;;;13.68;2.38;;;18.70;99.90;;;;;;4990282;28;20027;-57
2022/08/03 02:21:53;;;;;;;10.55;2.10;;;18.80;99.90;;;;;;4993204;28;20553;-57
2022/08/03 02:24:19;;;;;;;11.77;2.13;;;18.70;99.90;;;;;;4998179;28;20026;-59
2022/08/03 02:26:45;;;;;;;8.25;2.38;;;18.80;99.90;;;;;;4992712;28;20068;-59
2022/08/03 02:29:18;;;;;;;18.23;2.70;;;18.70;99.90;;;;;;4996914;28;20022;-58
2022/08/03 02:31:48;;;;;;;10.98;1.60;;;18.70;99.90;;;;;;4995516;28;20113;-57
2022/08/03 02:34:16;;;;;;;9.25;1.70;;;18.80;99.90;;;;;;4996473;28;20156;-57
2022/08/03 02:36:45;;;;;;;7.95;2.58;;;18.70;99.90;;;;;;4992692;28;20029;-57
2022/08/03 02:39:14;;;;;;;10.23;1.70;;;18.80;99.90;;;;;;4995612;28;20038;-58
2022/08/03 02:41:45;;;;;;;10.10;2.28;;;18.70;99.90;;;;;;4999456;28;20037;-57
2022/08/03 02:44:12;;;;;;;10.90;1.75;;;18.70;99.90;;;;;;4996243;28;20056;-58
2022/08/03 02:46:43;;;;;;;7.22;2.35;;;18.70;99.90;;;;;;4993390;28;20113;-58
2022/08/03 02:49:12;;;;;;;4.72;2.00;;;18.70;99.90;;;;;;4996011;28;20018;-58
2022/08/03 02:51:40;;;;;;;11.57;1.80;;;18.80;99.90;;;;;;4994308;28;20034;-58
2022/08/03 02:54:08;;;;;;;10.73;1.65;;;18.70;99.90;;;;;;4996656;28;20022;-58
2022/08/03 02:56:35;;;;;;;5.07;1.65;;;18.70;99.90;;;;;;4999037;28;20026;-58
2022/08/03 02:59:01;;;;;;;5.22;1.42;;;18.70;99.90;;;;;;4993094;28;20479;-58
2022/08/03 03:01:29;;;;;;;12.77;2.33;;;18.80;99.90;;;;;;4992769;28;20124;-58
2022/08/03 03:03:56;;;;;;;6.80;1.73;;;18.80;99.90;;;;;;4996607;28;20117;-59
2022/08/03 03:06:24;;;;;;;11.13;2.15;;;18.80;99.90;;;;;;4994848;28;20026;-58
2022/08/03 03:08:51;;;;;;;7.45;1.70;;;18.80;99.90;;;;;;4993518;28;20489;-58
2022/08/03 03:11:19;;;;;;;6.07;1.80;;;18.80;99.90;;;;;;4996094;28;20033;-58
2022/08/03 03:13:46;;;;;;;6.28;1.70;;;18.80;99.90;;;;;;4994775;28;20030;-58
2022/08/03 03:16:13;;;;;;;11.55;1.85;;;18.80;99.90;;;;;;5004416;28;20367;-58
2022/08/03 03:18:39;;;;;;;10.90;1.88;;;18.80;99.90;;;;;;4993357;28;20045;-59
2022/08/03 03:21:08;;;;;;;10.38;1.60;;;18.80;99.90;;;;;;4995120;28;20534;-58
2022/08/03 03:23:37;;;;;;;6.38;1.42;;;18.80;99.90;;;;;;4994366;28;20061;-58
2022/08/03 03:26:03;;;;;;;7.20;1.50;;;18.80;99.90;;;;;;4990980;28;20058;-58
2022/08/03 03:28:30;;;;;;;15.05;2.25;;;18.80;99.90;;;;;;4989177;28;20022;-57
2022/08/03 03:30:57;;;;;;;12.52;2.85;;;18.80;99.90;;;;;;5000478;28;20019;-57
2022/08/03 03:33:23;;;;;;;8.18;2.20;;;18.80;99.90;;;;;;5008422;28;20034;-57
2022/08/03 03:35:50;;;;;;;11.10;2.35;;;18.80;99.90;;;;;;4995766;28;20073;-57
2022/08/03 03:38:16;;;;;;;11.68;2.20;;;18.70;99.90;;;;;;5000513;28;20026;-58
2022/08/03 03:40:42;;;;;;;10.93;2.28;;;18.70;99.90;;;;;;4997373;28;20544;-58
2022/08/03 03:43:10;;;;;;;9.00;2.42;;;18.80;99.90;;;;;;4989877;28;20045;-58
2022/08/03 03:45:37;;;;;;;8.98;1.98;;;18.80;99.90;;;;;;4992695;28;20057;-58
2022/08/03 03:48:04;;;;;;;10.80;1.98;;;18.80;99.90;;;;;;4995425;28;20065;-58
2022/08/03 03:50:31;;;;;;;11.18;2.08;;;18.80;99.90;;;;;;4998121;28;20097;-58
2022/08/03 03:52:57;;;;;;;8.27;2.08;;;18.80;99.90;;;;;;4994414;28;20030;-57
2022/08/03 03:55:23;;;;;;;11.77;2.58;;;18.80;99.90;;;;;;4992937;28;20022;-58
2022/08/03 03:57:49;;;;;;;9.73;2.60;;;18.80;99.90;;;;;;4993828;28;20172;-58
2022/08/03 04:00:16;;;;;;;9.75;1.90;;;18.80;99.90;;;;;;4990521;28;20066;-58
2022/08/03 04:02:43;;;;;;;11.93;1.90;;;18.80;99.90;;;;;;4990652;28;20046;-58
2022/08/03 04:11:10;;;;;;;16.02;2.53;;;18.80;99.90;;;;;;4993868;28;20045;-58
2022/08/03 04:13:56;;;;;;;15.77;2.35;;;18.70;99.90;;;;;;5000859;28;20075;-58
2022/08/03 04:16:25;;;;;;;12.90;3.40;;;18.70;99.90;;;;;;4994119;28;20026;-57
2022/08/03 04:18:56;;;;;;;10.05;2.40;;;18.70;99.90;;;;;;4993678;28;20045;-58
2022/08/03 04:21:23;;;;;;;9.80;2.72;;;18.80;99.90;;;;;;4999975;28;20023;-58
2022/08/03 04:23:52;;;;;;;12.48;2.03;;;18.80;99.90;;;;;;4995251;28;20138;-58
2022/08/03 04:26:21;;;;;;;11.93;2.55;;;18.70;99.90;;;;;;5000901;28;20129;-58
2022/08/03 04:28:50;;;;;;;12.00;2.60;;;18.70;99.90;;;;;;4996320;28;20053;-57
2022/08/03 04:31:19;;;;;;;12.13;2.15;;;18.70;99.90;;;;;;4999068;28;20026;-57
2022/08/03 04:33:45;;;;;;;12.85;2.83;;;18.70;99.90;;;;;;4996133;28;20046;-58
2022/08/03 04:36:15;;;;;;;12.45;1.88;;;18.70;99.90;;;;;;4996822;28;20061;-58
2022/08/03 04:39:05;;;;;;;10.85;2.53;;;18.70;99.90;;;;;;4997377;28;20045;-58
2022/08/03 04:41:33;;;;;;;9.25;2.30;;;18.70;99.90;;;;;;4998877;28;20044;-58
2022/08/03 04:44:00;;;;;;;10.27;3.58;;;18.70;99.90;;;;;;4991208;28;20117;-58
2022/08/03 04:46:30;;;;;;;14.95;1.95;;;18.70;99.90;;;;;;4988002;28;20022;-58
2022/08/03 04:48:56;;;;;;;11.13;2.63;;;18.70;99.90;;;;;;4994216;28;20027;-58
2022/08/03 04:51:22;;;;;;;8.07;2.25;;;18.80;99.90;;;;;;4988510;28;20027;-58
2022/08/03 04:53:48;;;;;;;13.30;2.28;;;18.80;99.90;;;;;;4997019;28;20521;-58
2022/08/03 04:56:13;;;;;;;9.40;2.10;;;18.80;99.90;;;;;;4986724;28;20062;-58
2022/08/03 04:58:39;;;;;;;12.38;2.28;;;18.80;99.90;;;;;;4998368;28;20494;-58
2022/08/03 05:01:04;;;;;;;8.05;2.17;;;18.80;99.90;;;;;;4993647;28;20049;-58
2022/08/03 05:03:31;;;;;;;13.02;2.33;;;18.90;99.90;;;;;;4988616;28;20053;-57
2022/08/03 05:05:56;;;;;;;13.70;1.95;;;18.80;99.90;;;;;;4992952;28;20034;-58
2022/08/03 05:08:22;;;;;;;16.33;1.90;;;18.80;99.90;;;;;;4989142;28;20395;-58
2022/08/03 05:10:48;;;;;;;7.72;2.92;;;18.80;99.90;;;;;;4990776;28;20129;-59
2022/08/03 05:13:13;;;;;;;8.38;1.88;;;18.80;99.90;;;;;;4996257;28;20041;-58
2022/08/03 05:15:40;;;;;;;12.38;2.55;;;18.80;99.90;;;;;;4991124;28;20149;-58
2022/08/03 05:18:06;;;;;;;13.45;2.58;;;18.80;99.90;;;;;;4990266;28;20038;-58
2022/08/03 05:20:32;;;;;;;6.15;1.98;;;18.90;99.90;;;;;;4985346;28;20482;-58
2022/08/03 05:23:00;;;;;;;12.45;2.20;;;18.90;99.90;;;;;;4990999;28;20042;-58
2022/08/03 05:25:26;;;;;;;10.73;2.58;;;19.00;99.90;;;;;;4986126;28;20038;-59
2022/08/03 05:27:52;;;;;;;9.30;1.85;;;19.00;99.90;;;;;;5002555;28;20544;-58
2022/08/03 05:30:18;;;;;;;8.15;1.98;;;19.00;99.90;;;;;;4990008;28;20030;-59
2022/08/03 05:32:43;;;;;;;9.68;2.47;;;19.00;99.90;;;;;;4995037;28;20031;-57
2022/08/03 05:35:09;;;;;;;11.70;2.03;;;19.10;99.90;;;;;;4992279;28;20137;-57
2022/08/03 05:37:35;;;;;;;8.32;3.13;;;19.10;99.90;;;;;;4990352;28;20034;-58
2022/08/03 05:40:01;;;;;;;17.23;3.72;;;19.10;99.90;;;;;;4990419;28;20034;-59
2022/08/03 05:42:27;;;;;;;10.20;2.78;;;19.10;99.90;;;;;;4993553;28;20039;-58
2022/08/03 05:44:52;;;;;;;9.15;2.03;;;19.20;99.90;;;;;;4993445;28;20101;-58
2022/08/03 05:47:18;;;;;;;17.08;3.90;;;19.30;99.90;;;;;;4988260;28;20049;-58
2022/08/03 05:49:43;;;;;;;12.70;2.83;;;19.30;99.90;;;;;;4995174;28;20509;-58
2022/08/03 05:52:09;;;;;;;8.45;2.15;;;19.20;99.90;;;;;;4988994;28;20026;-58
2022/08/03 05:54:35;;;;;;;8.57;2.13;;;19.20;99.90;;;;;;4995703;28;20018;-58
2022/08/03 05:57:01;;;;;;;11.57;2.00;;;19.20;99.90;;;;;;4997069;28;20385;-58
2022/08/03 05:59:26;;;;;;;13.98;2.45;;;19.30;99.90;;;;;;4987407;28;20075;-57
2022/08/03 06:01:52;;;;;;;8.60;2.25;;;19.30;99.90;;;;;;4990591;28;20046;-58
2022/08/03 06:04:18;;;;;;;12.20;2.42;;;19.40;99.90;;;;;;4986946;28;20478;-58
2022/08/03 06:06:44;;;;;;;12.43;2.20;;;19.40;99.90;;;;;;4993937;28;20045;-58
2022/08/03 06:09:09;;;;;;;11.07;2.40;;;19.40;99.90;;;;;;4987790;28;20015;-58
2022/08/03 06:11:36;;;;;;;12.23;2.63;;;19.40;99.90;;;;;;4994242;28;20722;-57
2022/08/03 06:14:02;;;;;;;14.90;2.10;;;19.40;99.90;;;;;;5000415;28;20494;-57
2022/08/03 06:16:28;;;;;;;12.40;2.40;;;19.30;99.90;;;;;;4996829;28;20116;-60
2022/08/03 06:18:53;;;;;;;16.17;2.70;;;19.30;99.90;;;;;;4997294;28;20553;-58
2022/08/03 06:21:19;;;;;;;10.18;1.73;;;19.30;99.90;;;;;;4994608;28;20482;-59
2022/08/03 06:23:46;;;;;;;5.97;1.67;;;19.30;99.90;;;;;;4997488;28;20040;-59
2022/08/03 06:26:12;;;;;;;9.50;2.33;;;19.30;99.90;;;;;;4982426;28;20494;-59
2022/08/03 06:28:38;;;;;;;12.15;2.55;;;19.30;99.90;;;;;;4987895;28;20022;-59
2022/08/03 06:31:03;;;;;;;10.10;1.95;;;19.30;99.90;;;;;;4987807;28;20026;-57
2022/08/03 06:33:29;;;;;;;15.02;2.70;;;19.40;99.90;;;;;;4985931;28;20030;-59
2022/08/03 06:35:55;;;;;;;9.80;2.13;;;19.30;99.90;;;;;;4976653;28;20029;-59
2022/08/03 06:38:20;;;;;;;12.27;2.25;;;19.40;99.90;;;;;;4987376;28;20031;-59
2022/08/03 06:40:46;;;;;;;9.45;2.08;;;19.40;99.90;;;;;;4995914;28;20142;-58
2022/08/03 06:43:14;;;;;;;9.68;2.08;;;19.40;99.90;;;;;;4990959;28;20030;-58
2022/08/03 06:45:40;;;;;;;7.95;1.85;;;19.40;99.90;;;;;;4987544;28;20133;-58
2022/08/03 06:48:08;;;;;;;13.57;2.05;;;19.40;99.90;;;;;;4996048;28;20022;-58
2022/08/03 06:50:36;;;;;;;8.95;2.33;;;19.50;99.90;;;;;;4985569;28;20080;-58
2022/08/03 06:53:03;;;;;;;9.77;1.50;;;19.50;99.90;;;;;;4990849;28;20034;-58
2022/08/03 06:55:30;;;;;;;8.52;1.70;;;19.50;99.90;;;;;;4986257;28;20505;-59
2022/08/03 06:57:56;;;;;;;9.95;1.63;;;19.60;99.90;;;;;;4988663;28;20026;-59
2022/08/03 07:00:21;;;;;;;7.72;1.80;;;19.70;99.90;;;;;;4995974;28;20029;-59
2022/08/03 07:02:48;;;;;;;11.23;1.70;;;19.80;99.90;;;;;;4992047;28;20615;-57
2022/08/03 07:05:14;;;;;;;7.50;2.00;;;19.70;99.90;;;;;;4989704;28;20034;-58
2022/08/03 07:07:40;;;;;;;9.10;2.70;;;19.80;99.90;;;;;;4989030;28;20030;-58
2022/08/03 07:10:07;;;;;;;10.25;2.53;;;19.80;99.90;;;;;;4992963;28;20037;-60
2022/08/03 07:12:34;;;;;;;11.95;1.92;;;19.90;99.90;;;;;;4991780;28;20022;-59
2022/08/03 07:15:00;;;;;;;5.90;1.27;;;19.90;99.90;;;;;;4996806;28;20044;-59
2022/08/03 07:17:27;;;;;;;5.80;2.10;;;20.00;99.90;;;;;;4991662;28;20038;-58
2022/08/03 07:19:52;;;;;;;6.95;1.20;;;20.00;99.90;;;;;;4999538;28;20022;-58
2022/08/03 07:22:18;;;;;;;4.00;1.08;;;20.00;99.90;;;;;;4998431;28;20042;-58
2022/08/03 07:24:44;;;;;;;6.63;1.90;;;20.10;99.90;;;;;;4991330;28;20022;-58
2022/08/03 07:27:10;;;;;;;5.45;1.15;;;20.10;99.90;;;;;;4992551;28;20026;-58
2022/08/03 07:29:36;;;;;;;11.13;2.10;;;20.10;99.90;;;;;;4992916;28;20041;-58
2022/08/03 07:32:03;;;;;;;8.02;1.98;;;20.30;99.90;;;;;;4996415;28;20018;-59
2022/08/03 07:34:29;;;;;;;8.68;1.85;;;20.30;99.90;;;;;;4992595;28;20038;-58
2022/08/03 07:36:55;;;;;;;9.00;2.85;;;20.20;99.90;;;;;;4994641;28;20093;-58
2022/08/03 07:39:21;;;;;;;15.80;3.10;;;20.10;99.90;;;;;;4991833;28;20438;-58
2022/08/03 07:41:49;;;;;;;11.98;2.33;;;20.10;99.90;;;;;;4989883;28;20030;-59
2022/08/03 07:44:15;;;;;;;7.80;1.80;;;20.10;99.90;;;;;;4992793;28;20054;-58
2022/08/03 07:46:40;;;;;;;5.55;2.08;;;20.00;99.90;;;;;;4992921;28;20125;-58
2022/08/03 07:49:06;;;;;;;6.80;1.95;;;20.00;99.90;;;;;;4999644;28;20033;-60
2022/08/03 07:51:31;;;;;;;13.18;2.28;;;19.90;99.90;;;;;;4990278;28;20509;-59
2022/08/03 07:53:57;;;;;;;11.77;2.33;;;20.00;99.90;;;;;;4994847;28;20363;-59
2022/08/03 07:56:23;;;;;;;12.73;2.00;;;20.20;99.90;;;;;;4997406;28;20517;-59
2022/08/03 07:58:50;;;;;;;11.20;2.30;;;20.10;99.90;;;;;;4996715;28;20133;-57
2022/08/03 08:01:18;;;;;;;13.43;2.33;;;20.10;99.90;;;;;;4988849;28;20491;-58
2022/08/03 08:03:47;;;;;;;12.05;2.95;;;20.10;99.90;;;;;;4996550;28;20037;-58
2022/08/03 08:06:12;;;;;;;12.45;2.30;;;20.10;99.90;;;;;;4989093;28;20019;-58
2022/08/03 08:08:39;;;;;;;14.85;2.67;;;20.10;99.90;;;;;;4991126;28;20505;-58
2022/08/03 08:11:05;;;;;;;17.33;2.60;;;20.20;99.90;;;;;;4999915;28;20071;-57
2022/08/03 08:13:31;;;;;;;12.95;4.72;;;20.20;99.90;;;;;;4990888;28;20030;-58
2022/08/03 08:15:57;;;;;;;10.95;2.50;;;20.10;99.90;;;;;;4999062;28;20048;-58
2022/08/03 08:18:23;;;;;;;10.15;2.75;;;20.00;99.90;;;;;;4993931;28;20034;-59
2022/08/03 08:20:49;;;;;;;17.30;3.05;;;19.90;99.90;;;;;;4990155;28;20041;-58
2022/08/03 08:23:14;;;;;;;15.98;2.92;;;20.10;99.90;;;;;;4997319;28;20038;-58
2022/08/03 08:25:40;;;;;;;8.45;2.22;;;20.10;99.90;;;;;;4989801;28;20046;-58
2022/08/03 08:28:06;;;;;;;13.15;2.47;;;20.10;99.90;;;;;;5005191;28;20025;-59
2022/08/03 08:30:32;;;;;;;9.35;2.97;;;20.00;99.90;;;;;;4991701;28;20105;-58
2022/08/03 08:32:58;;;;;;;11.95;2.03;;;20.10;99.90;;;;;;4990375;28;20482;-58
2022/08/03 08:35:24;;;;;;;14.73;3.00;;;20.20;99.90;;;;;;4989426;28;20105;-58
2022/08/03 08:37:50;;;;;;;14.55;2.05;;;20.20;99.90;;;;;;4988111;28;20072;-58
2022/08/03 08:40:19;;;;;;;11.52;2.30;;;20.30;99.90;;;;;;4990537;28;20101;-59
2022/08/03 08:42:46;;;;;;;10.93;3.00;;;20.10;99.90;;;;;;4988862;28;20038;-58
2022/08/03 08:45:14;;;;;;;11.65;2.97;;;20.20;99.90;;;;;;4989482;28;20042;-58
2022/08/03 08:47:45;;;;;;;12.38;2.15;;;20.30;99.90;;;;;;4994055;28;20085;-58
2022/08/03 08:50:11;;;;;;;8.40;2.10;;;20.30;99.90;;;;;;4989568;28;20026;-59
2022/08/03 08:52:41;;;;;;;11.85;1.85;;;20.30;99.90;;;;;;4994409;28;20026;-58
2022/08/03 08:55:09;;;;;;;11.13;3.20;;;20.40;99.90;;;;;;4990272;28;20029;-58
2022/08/03 08:57:36;;;;;;;6.72;1.15;;;20.60;99.90;;;;;;4992530;28;20037;-58
2022/08/03 09:00:09;;;;;;;7.70;3.28;;;20.60;99.90;;;;;;4990561;28;20046;-59
2022/08/03 09:02:35;;;;;;;8.88;1.58;;;20.90;99.90;;;;;;4994683;28;20039;-57
2022/08/03 09:05:02;;;;;;;10.68;2.72;;;20.90;99.90;;;;;;4998302;28;20025;-58
2022/08/03 09:07:30;;;;;;;12.20;2.33;;;20.90;99.90;;;;;;4994064;28;20066;-60
2022/08/03 09:09:56;;;;;;;14.43;2.40;;;20.80;99.90;;;;;;4987501;28;20040;-58
2022/08/03 09:12:22;;;;;;;12.73;2.75;;;20.80;99.90;;;;;;4997151;28;20101;-58
2022/08/03 09:14:48;;;;;;;9.10;3.30;;;21.00;99.90;;;;;;4994578;28;20097;-58
2022/08/03 09:17:14;;;;;;;12.20;2.03;;;21.00;99.90;;;;;;4993786;28;20041;-58
2022/08/03 09:19:41;;;;;;;11.15;2.55;;;21.20;99.90;;;;;;4993791;28;20553;-58
2022/08/03 09:22:11;;;;;;;12.23;2.63;;;21.50;99.90;;;;;;4989342;28;20112;-58
2022/08/03 09:24:52;;;;;;;12.05;2.08;;;21.60;99.90;;;;;;4987379;28;20027;-57
2022/08/03 09:27:18;;;;;;;8.90;1.50;;;21.50;99.90;;;;;;4991336;28;20061;-59
2022/08/03 09:29:48;;;;;;;9.98;1.77;;;21.60;99.90;;;;;;4990154;28;20076;-59
2022/08/03 09:32:14;;;;;;;8.77;1.73;;;21.50;99.90;;;;;;4991194;28;20129;-60
2022/08/03 09:34:40;;;;;;;10.77;1.90;;;21.50;99.90;;;;;;4983573;28;20042;-58
2022/08/03 09:37:16;;;;;;;11.77;2.00;;;21.40;99.90;;;;;;4985183;28;20491;-59
2022/08/03 09:39:42;;;;;;;8.60;1.67;;;21.10;99.90;;;;;;4989210;28;20031;-59
2022/08/03 09:42:21;;;;;;;13.35;3.17;;;21.10;99.90;;;;;;4983538;28;20459;-59
2022/08/03 09:44:48;;;;;;;8.98;1.50;;;21.10;99.90;;;;;;4984229;28;20733;-58
2022/08/03 09:47:36;;;;;;;9.50;1.55;;;21.20;99.90;;;;;;4989883;28;20483;-58
2022/08/03 09:50:06;;;;;;;9.65;2.05;;;21.20;99.90;;;;;;4986646;28;20469;-58
2022/08/03 09:52:40;;;;;;;6.82;1.70;;;21.30;99.90;;;;;;4989730;28;20069;-57
2022/08/03 09:55:11;;;;;;;6.30;1.38;;;21.40;99.90;;;;;;4987464;28;20509;-57
2022/08/03 09:57:37;;;;;;;13.95;2.22;;;21.50;99.90;;;;;;4988669;28;20027;-59
2022/08/03 10:00:09;;;;;;;9.80;2.08;;;21.40;99.90;;;;;;4984027;28;20033;-59
2022/08/03 10:02:34;;;;;;;;;;;21.40;99.90;;;;;;4986504;28;20051;-60
2022/08/03 10:05:00;;;;;;;7.47;1.52;;;21.50;99.90;;;;;;4987946;28;20282;-59
2022/08/03 10:07:26;;;;;;;11.90;1.40;;;21.70;99.90;;;;;;4992252;28;20087;-59
2022/08/03 10:09:58;;;;;;;6.05;2.33;;;21.70;99.90;;;;;;4987402;28;20053;-59
2022/08/03 10:12:24;;;;;;;6.70;1.70;;;21.60;99.90;;;;;;4988311;28;20031;-58
2022/08/03 10:14:51;;;;;;;9.63;2.05;;;21.50;99.90;;;;;;4992440;28;20590;-58
2022/08/03 10:17:18;;;;;;;14.88;1.80;;;21.50;99.90;;;;;;4986134;28;20034;-58
2022/08/03 10:19:44;;;;;;;10.07;1.65;;;21.60;99.90;;;;;;4996875;28;20038;-58
2022/08/03 10:22:14;;;;;;;13.27;2.20;;;21.80;99.90;;;;;;4988569;28;20050;-58
2022/08/03 10:24:58;;;;;;;7.30;2.10;;;21.90;99.90;;;;;;4985918;28;20470;-58
2022/08/03 10:27:29;;;;;;;10.40;1.88;;;21.80;99.90;;;;;;4980429;28;20038;-58
2022/08/03 10:30:00;;;;;;;10.13;2.03;;;22.20;99.90;;;;;;4984107;28;20037;-58
2022/08/03 10:32:30;;;;;;;6.72;1.50;;;22.40;99.90;;;;;;4987912;28;20116;-59
2022/08/03 10:35:09;;;;;;;6.00;1.50;;;22.50;99.90;;;;;;4987284;28;20033;-59
2022/08/03 10:37:42;;;;;;;10.95;1.65;;;22.70;99.90;;;;;;4989566;28;20036;-57
2022/08/03 10:40:12;;;;;;;8.65;1.80;;;22.90;99.90;;;;;;4989807;28;20534;-57
2022/08/03 10:42:40;;;;;;;7.00;1.30;;;23.00;99.90;;;;;;4995918;28;20144;-57
2022/08/03 10:45:16;;;;;;;6.35;2.15;;;23.10;99.90;;;;;;4993873;28;20458;-57
2022/08/03 10:47:43;;;;;;;8.55;1.52;;;23.40;99.90;;;;;;4987454;28;20205;-59
2022/08/03 10:50:10;;;;;;;11.18;1.80;;;23.30;99.90;;;;;;4992164;28;20030;-58
2022/08/03 10:52:52;;;;;;;5.97;1.60;;;23.20;99.90;;;;;;4995293;28;20569;-58
2022/08/03 10:58:37;;;;;;;4.87;1.10;;;23.30;99.90;;;;;;4989895;28;20402;-59
2022/08/03 11:01:04;;;;;;;7.00;1.80;;;23.50;99.90;;;;;;4992171;28;20052;-59
2022/08/03 11:03:31;;;;;;;3.92;1.45;;;23.40;99.90;;;;;;4989714;28;20042;-58
2022/08/03 11:06:17;;;;;;;4.22;1.30;;;23.60;99.90;;;;;;4993349;28;20031;-57
2022/08/03 11:08:47;;;;;;;10.48;1.92;;;23.50;99.90;;;;;;4995377;28;20026;-57
2022/08/03 11:11:16;;;;;;;6.88;2.15;;;23.70;99.90;;;;;;4989874;28;20455;-57
2022/08/03 11:13:57;;;;;;;7.53;2.45;;;23.90;99.90;;;;;;4992698;28;20479;-58
2022/08/03 11:16:25;;;;;;;5.47;1.60;;;24.10;99.90;;;;;;4991842;28;20038;-58
2022/08/03 11:19:14;;;;;;;11.35;2.15;;;24.20;99.90;;;;;;4996746;28;20058;-57
2022/08/03 11:21:49;;;;;;;8.77;1.50;;;24.20;99.90;;;;;;4997249;28;20041;-58
2022/08/03 11:24:38;;;;;;;7.78;1.65;;;24.10;99.90;;;;;;4992398;28;20030;-58
2022/08/03 11:27:17;;;;;;;6.22;1.52;;;24.10;99.90;;;;;;4987102;28;20053;-58
2022/08/03 11:30:09;;;;;;;3.80;1.48;;;24.30;99.90;;;;;;4991182;28;20026;-58
2022/08/03 11:32:42;;;;;;;4.07;1.52;;;24.40;99.90;;;;;;4991296;28;20030;-57
2022/08/03 11:35:34;;;;;;;9.93;1.42;;;24.50;99.90;;;;;;4991007;28;20088;-57
2022/08/03 11:38:00;;;;;;;5.22;0.95;;;24.40;99.90;;;;;;4982406;28;20030;-58
2022/08/03 11:40:43;;;;;;;4.93;1.40;;;24.30;99.90;;;;;;4987564;28;20062;-57
2022/08/03 11:43:21;;;;;;;9.20;1.80;;;24.70;99.90;;;;;;4988043;28;20038;-58
2022/08/03 11:46:02;;;;;;;5.45;1.42;;;24.50;99.90;;;;;;4990480;28;20133;-58
2022/08/03 11:48:33;;;;;;;7.75;1.27;;;24.30;99.90;;;;;;4988164;28;20045;-58
2022/08/03 11:51:00;;;;;;;5.20;1.40;;;24.20;99.90;;;;;;4991111;28;20038;-58
2022/08/03 11:53:27;;;;;;;10.13;1.80;;;24.20;99.90;;;;;;4987182;28;20018;-59
2022/08/03 11:55:53;;;;;;;7.20;1.63;;;24.10;99.90;;;;;;4990287;28;20080;-59
2022/08/03 11:58:20;;;;;;;7.95;2.33;;;23.80;99.90;;;;;;4987408;28;20106;-58
2022/08/03 12:00:50;;;;;;;8.30;1.85;;;23.60;99.90;;;;;;4990915;28;20113;-59
2022/08/03 12:03:18;;;;;;;9.73;2.25;;;23.40;99.90;;;;;;4987619;28;20539;-59
2022/08/03 12:05:47;;;;;;;7.68;1.60;;;23.30;99.90;;;;;;4987475;28;20014;-58
2022/08/03 12:08:16;;;;;;;7.28;2.00;;;23.10;99.90;;;;;;4989603;28;20042;-59
2022/08/03 12:10:48;;;;;;;6.90;1.63;;;23.00;99.90;;;;;;4996437;28;20033;-59
2022/08/03 12:13:14;;;;;;;6.53;1.30;;;23.20;99.90;;;;;;4988147;28;20034;-59
2022/08/03 12:15:40;;;;;;;18.00;2.78;;;23.10;99.90;;;;;;4989640;28;20398;-58
2022/08/03 12:18:15;;;;;;;8.30;1.30;;;23.10;99.90;;;;;;4990914;28;20022;-58
2022/08/03 12:20:42;;;;;;;8.82;1.80;;;23.00;99.90;;;;;;4990953;28;20026;-58
2022/08/03 12:23:11;;;;;;;8.20;1.70;;;23.20;99.90;;;;;;4996554;28;20038;-58
2022/08/03 12:25:40;;;;;;;10.55;1.88;;;23.10;99.90;;;;;;4998908;28;20045;-58
2022/08/03 12:28:18;;;;;;;4.22;1.42;;;23.40;99.90;;;;;;4991353;28;20118;-58
2022/08/03 12:30:47;;;;;;;8.93;1.67;;;23.50;99.90;;;;;;4982101;28;20022;-59
2022/08/03 12:33:23;;;;;;;6.22;2.15;;;23.60;99.90;;;;;;4989972;28;20108;-59
2022/08/03 12:36:07;;;;;;;5.68;2.38;;;23.80;99.90;;;;;;4991407;28;20081;-57
2022/08/03 12:38:42;;;;;;;6.53;2.10;;;23.90;99.90;;;;;;4988548;28;20505;-58
2022/08/03 12:41:15;;;;;;;7.32;3.35;;;24.00;99.90;;;;;;4989793;28;20138;-58
2022/08/03 12:43:50;;;;;;;5.95;1.75;;;23.90;99.90;;;;;;4987256;28;20057;-58
2022/08/03 12:46:20;;;;;;;9.10;2.35;;;24.10;99.90;;;;;;4990172;28;20121;-60
2022/08/03 12:49:17;;;;;;;6.53;1.67;;;24.20;99.90;;;;;;4985141;28;20034;-59
2022/08/03 12:51:43;;;;;;;7.28;2.13;;;24.00;99.90;;;;;;4981496;28;20070;-58
2022/08/03 12:54:16;;;;;;;9.45;2.10;;;24.10;99.90;;;;;;4988888;28;20057;-57
2022/08/03 12:57:10;;;;;;;8.60;2.42;;;24.30;99.90;;;;;;4990380;28;20030;-58
2022/08/03 12:59:45;;;;;;;12.13;2.67;;;24.30;99.90;;;;;;4984771;28;20493;-59